createdAt,value
2022-08-22T00:00:11.911Z,95398.63
2022-08-22T00:02:45.888Z,95416.44
2022-08-22T00:02:56.459Z,95417.75
2022-08-22T00:03:01.249Z,95399.84
2022-08-22T00:03:10.469Z,95427.69
2022-08-22T00:03:11.930Z,95412.88
2022-08-22T00:03:17.676Z,95399.25
2022-08-22T00:05:56.030Z,95397.41
2022-08-22T00:08:29.189Z,95392.69
2022-08-22T00:11:02.635Z,95392.09
2022-08-22T00:13:37.115Z,95398.56
2022-08-22T00:16:10.314Z,95399.28
2022-08-22T00:18:45.279Z,95401.69
2022-08-22T00:21:19.875Z,95402.94
2022-08-22T00:23:50.907Z,95406.34
2022-08-22T00:26:33.864Z,95398.13
2022-08-22T00:29:05.270Z,95399.63
2022-08-22T00:31:38.150Z,95399.03
2022-08-22T00:34:11.145Z,95393.56
2022-08-22T00:36:43.908Z,95388.59
2022-08-22T00:39:20.141Z,95387.13
2022-08-22T00:42:16.006Z,95384.09
2022-08-22T00:45:18.174Z,95390.47
2022-08-22T00:47:57.549Z,95381.44
2022-08-22T00:50:41.328Z,95383.44
2022-08-22T00:53:31.616Z,95385.88
2022-08-22T00:56:21.674Z,95381.53
2022-08-22T00:59:18.120Z,95379.53
2022-08-22T01:01:58.704Z,95375.41
2022-08-22T01:04:46.937Z,95373.94
2022-08-22T01:07:38.205Z,95367.50
2022-08-22T01:10:24.850Z,95373.97
2022-08-22T01:13:07.179Z,95371.28
2022-08-22T01:15:37.481Z,95375.72
2022-08-22T01:18:28.196Z,95377.34
2022-08-22T01:21:45.992Z,95379.47
2022-08-22T01:25:22.580Z,95379.25
2022-08-22T01:28:41.190Z,95375.28
2022-08-22T01:31:58.481Z,95376.44
2022-08-22T01:35:01.173Z,95372.53
2022-08-22T01:37:45.067Z,95382.78
2022-08-22T01:40:54.087Z,95377.69
2022-08-22T01:43:58.563Z,95382.19
2022-08-22T01:46:36.134Z,95376.25
2022-08-22T01:49:12.970Z,95375.53
2022-08-22T01:51:51.152Z,95380.47
2022-08-22T01:54:36.102Z,95381.25
2022-08-22T01:57:08.793Z,95390.09
2022-08-22T01:59:42.334Z,95387.81
2022-08-22T02:02:37.458Z,95383.75
2022-08-22T02:05:13.097Z,95377.81
2022-08-22T02:07:50.015Z,95380.47
2022-08-22T02:10:23.767Z,95387.84
2022-08-22T02:13:03.805Z,95384.16
2022-08-22T02:15:45.075Z,95387.44
2022-08-22T02:18:21.831Z,95390.09
2022-08-22T02:21:01.647Z,95383.53
2022-08-22T02:23:37.393Z,95389.06
2022-08-22T02:26:10.643Z,95393.59
2022-08-22T02:28:57.325Z,95390.72
2022-08-22T02:31:37.046Z,95395.03
2022-08-22T02:34:21.319Z,95390.25
2022-08-22T02:36:55.019Z,95384.50
2022-08-22T02:39:36.801Z,95395.13
2022-08-22T02:42:17.155Z,95395.69
2022-08-22T02:44:59.105Z,95393.56
2022-08-22T02:47:32.893Z,95387.00
2022-08-22T02:50:12.706Z,95384.91
2022-08-22T02:52:55.135Z,95381.69
2022-08-22T02:55:35.330Z,95383.75
2022-08-22T02:58:09.926Z,95383.31
2022-08-22T03:00:47.300Z,95390.25
2022-08-22T03:03:23.123Z,95386.41
2022-08-22T03:06:01.359Z,95384.59
2022-08-22T03:08:33.115Z,95389.00
2022-08-22T03:11:19.039Z,95381.19
2022-08-22T03:13:55.513Z,95382.00
2022-08-22T03:16:29.749Z,95383.44
2022-08-22T03:19:04.006Z,95380.59
2022-08-22T03:21:36.906Z,95383.47
2022-08-22T03:24:13.126Z,95382.22
2022-08-22T03:26:50.353Z,95387.06
2022-08-22T03:29:23.202Z,95369.97
2022-08-22T03:32:07.831Z,95385.25
2022-08-22T03:34:37.441Z,95374.25
2022-08-22T03:37:14.096Z,95376.47
2022-08-22T03:39:53.083Z,95382.22
2022-08-22T03:43:08.435Z,95385.47
2022-08-22T03:46:18.600Z,95375.72
2022-08-22T03:49:09.241Z,95379.56
2022-08-22T03:52:04.111Z,95378.16
2022-08-22T03:54:52.585Z,95380.38
2022-08-22T03:57:49.520Z,95382.06
2022-08-22T04:00:47.128Z,95384.31
2022-08-22T04:03:54.594Z,95376.25
2022-08-22T04:06:56.449Z,95387.03
2022-08-22T04:09:52.029Z,95382.56
2022-08-22T04:12:46.239Z,95401.94
2022-08-22T04:15:41.659Z,95398.03
2022-08-22T04:18:33.376Z,95400.88
2022-08-22T04:21:23.495Z,95406.34
2022-08-22T04:24:24.581Z,95405.91
2022-08-22T04:26:56.802Z,95405.09
2022-08-22T04:29:39.075Z,95400.78
2022-08-22T04:32:15.005Z,95415.47
2022-08-22T04:34:48.855Z,95404.81
2022-08-22T04:37:21.737Z,95407.44
2022-08-22T04:39:56.386Z,95405.97
2022-08-22T04:42:33.133Z,95405.94
2022-08-22T04:45:06.942Z,95415.75
2022-08-22T04:47:40.044Z,95419.38
2022-08-22T04:50:17.549Z,95408.50
2022-08-22T04:53:02.330Z,95410.31
2022-08-22T04:55:36.696Z,95421.91
2022-08-22T04:58:14.976Z,95419.66
2022-08-22T05:00:50.222Z,95424.06
2022-08-22T05:03:22.387Z,95424.03
2022-08-22T05:05:53.522Z,95429.53
2022-08-22T05:08:26.842Z,95434.19
2022-08-22T05:10:55.702Z,95434.94
2022-08-22T05:13:29.061Z,95427.97
2022-08-22T05:16:03.415Z,95434.47
2022-08-22T05:18:40.021Z,95434.81
2022-08-22T05:21:13.956Z,95435.31
2022-08-22T05:23:45.879Z,95441.75
2022-08-22T05:26:16.143Z,95438.25
2022-08-22T05:28:52.534Z,95440.84
2022-08-22T05:31:27.315Z,95442.44
2022-08-22T05:34:02.364Z,95438.28
2022-08-22T05:36:33.461Z,95441.47
2022-08-22T05:39:05.826Z,95438.97
2022-08-22T05:41:40.557Z,95445.53
2022-08-22T05:44:17.988Z,95447.00
2022-08-22T05:46:52.581Z,95443.97
2022-08-22T05:49:27.059Z,95440.59
2022-08-22T05:52:07.450Z,95445.50
2022-08-22T05:54:54.560Z,95441.44
2022-08-22T05:57:29.318Z,95441.16
2022-08-22T06:00:04.525Z,95441.66
2022-08-22T06:02:52.516Z,95439.88
2022-08-22T06:05:25.856Z,95458.22
2022-08-22T06:08:00.594Z,95450.19
2022-08-22T06:10:33.428Z,95449.03
2022-08-22T06:13:04.835Z,95446.50
2022-08-22T06:15:46.259Z,95448.38
2022-08-22T06:18:21.370Z,95460.03
2022-08-22T06:20:55.046Z,95450.97
2022-08-22T06:23:27.639Z,95455.31
2022-08-22T06:26:00.792Z,95452.78
2022-08-22T06:28:34.952Z,95453.84
2022-08-22T06:31:04.454Z,95461.66
2022-08-22T06:33:38.275Z,95458.75
2022-08-22T06:36:31.775Z,95459.69
2022-08-22T06:39:16.690Z,95459.59
2022-08-22T06:41:50.421Z,95469.34
2022-08-22T06:44:23.452Z,95474.34
2022-08-22T06:46:55.518Z,95462.81
2022-08-22T06:49:25.709Z,95471.22
2022-08-22T06:51:58.521Z,95467.00
2022-08-22T06:54:34.290Z,95473.53
2022-08-22T06:57:04.688Z,95468.31
2022-08-22T06:59:38.115Z,95470.25
2022-08-22T07:02:17.888Z,95468.63
2022-08-22T07:04:48.961Z,95466.41
2022-08-22T07:07:19.484Z,95474.75
2022-08-22T07:09:55.271Z,95472.81
2022-08-22T07:12:28.169Z,95468.00
2022-08-22T07:15:00.659Z,95466.47
2022-08-22T07:17:30.851Z,95468.50
2022-08-22T07:20:03.719Z,95473.16
2022-08-22T07:22:36.508Z,95471.91
2022-08-22T07:25:09.097Z,95471.63
2022-08-22T07:27:48.960Z,95471.09
2022-08-22T07:30:27.496Z,95473.75
2022-08-22T07:33:24.903Z,95470.19
2022-08-22T07:35:53.912Z,95469.97
2022-08-22T07:38:32.550Z,95466.91
2022-08-22T07:41:07.569Z,95478.31
2022-08-22T07:43:41.421Z,95471.81
2022-08-22T07:46:22.891Z,95474.38
2022-08-22T07:49:08.553Z,95474.97
2022-08-22T07:51:43.091Z,95476.91
2022-08-22T07:54:15.528Z,95480.22
2022-08-22T07:56:46.444Z,95472.56
2022-08-22T07:59:17.151Z,95485.81
2022-08-22T08:01:48.293Z,95486.75
2022-08-22T08:04:21.746Z,95488.81
2022-08-22T08:06:53.651Z,95480.78
2022-08-22T08:09:23.127Z,95489.38
2022-08-22T08:11:54.535Z,95481.41
2022-08-22T08:14:24.487Z,95482.53
2022-08-22T08:16:57.302Z,95488.78
2022-08-22T08:19:25.785Z,95488.25
2022-08-22T08:21:57.041Z,95488.00
2022-08-22T08:24:36.161Z,95488.81
2022-08-22T08:27:33.202Z,95489.13
2022-08-22T08:30:06.196Z,95494.53
2022-08-22T08:32:38.771Z,95493.19
2022-08-22T08:35:09.727Z,95486.63
2022-08-22T08:37:45.525Z,95498.19
2022-08-22T08:40:42.179Z,95488.41
2022-08-22T08:43:29.352Z,95488.69
2022-08-22T08:46:25.666Z,95488.81
2022-08-22T08:49:24.023Z,95490.84
2022-08-22T08:52:17.100Z,95497.31
2022-08-22T08:55:00.367Z,95496.16
2022-08-22T08:57:47.858Z,95500.50
2022-08-22T09:00:21.454Z,95502.69
2022-08-22T09:03:07.185Z,95499.88
2022-08-22T09:05:52.447Z,95491.25
2022-08-22T09:08:55.682Z,95496.09
2022-08-22T09:11:46.687Z,95497.09
2022-08-22T09:14:39.340Z,95501.25
2022-08-22T09:17:58.150Z,95501.38
2022-08-22T09:20:50.201Z,95496.22
2022-08-22T09:23:48.616Z,95496.50
2022-08-22T09:26:29.771Z,95493.19
2022-08-22T09:29:04.590Z,95498.94
2022-08-22T09:31:47.545Z,95494.22
2022-08-22T09:34:23.885Z,95482.97
2022-08-22T09:37:14.226Z,95492.47
2022-08-22T09:39:52.403Z,95492.28
2022-08-22T09:42:26.508Z,95490.91
2022-08-22T09:45:20.357Z,95487.00
2022-08-22T09:48:02.269Z,95488.34
2022-08-22T09:50:47.550Z,95498.75
2022-08-22T09:53:38.048Z,95494.97
2022-08-22T09:56:14.995Z,95489.84
2022-08-22T09:58:53.249Z,95490.00
2022-08-22T10:01:32.835Z,95489.34
2022-08-22T10:04:38.136Z,95484.53
2022-08-22T10:07:41.591Z,95482.78
2022-08-22T10:10:28.218Z,95485.50
2022-08-22T10:13:04.655Z,95481.06
2022-08-22T10:15:42.479Z,95482.63
2022-08-22T10:18:23.511Z,95482.84
2022-08-22T10:21:07.478Z,95479.84
2022-08-22T10:23:43.288Z,95480.78
2022-08-22T10:26:25.972Z,95473.69
2022-08-22T10:28:57.624Z,95474.22
2022-08-22T10:31:42.859Z,95472.47
2022-08-22T10:34:31.191Z,95469.91
2022-08-22T10:37:10.926Z,95469.59
2022-08-22T10:39:45.707Z,95469.13
2022-08-22T10:42:25.158Z,95467.84
2022-08-22T10:45:24.066Z,95466.53
2022-08-22T10:48:32.470Z,95469.56
2022-08-22T10:51:17.963Z,95469.97
2022-08-22T10:53:58.489Z,95472.19
2022-08-22T10:56:33.994Z,95472.84
2022-08-22T10:59:11.683Z,95471.06
2022-08-22T11:01:52.484Z,95464.63
2022-08-22T11:04:40.302Z,95462.38
2022-08-22T11:07:21.891Z,95467.72
2022-08-22T11:09:56.987Z,95467.25
2022-08-22T11:12:34.909Z,95468.66
2022-08-22T11:15:13.455Z,95467.50
2022-08-22T11:18:15.255Z,95462.66
2022-08-22T11:20:56.241Z,95462.34
2022-08-22T11:23:37.550Z,95458.78
2022-08-22T11:26:15.038Z,95462.38
2022-08-22T11:29:16.417Z,95467.63
2022-08-22T11:31:52.400Z,95461.72
2022-08-22T11:34:37.987Z,95463.66
2022-08-22T11:37:11.608Z,95458.69
2022-08-22T11:39:46.135Z,95463.97
2022-08-22T11:42:29.629Z,95449.41
2022-08-22T11:45:01.855Z,95450.50
2022-08-22T11:47:32.345Z,95447.03
2022-08-22T11:50:13.300Z,95444.47
2022-08-22T11:52:56.549Z,95434.44
2022-08-22T11:55:33.011Z,95443.28
2022-08-22T11:58:18.069Z,95442.09
2022-08-22T12:00:56.695Z,95434.56
2022-08-22T12:03:42.134Z,95436.09
2022-08-22T12:06:30.023Z,95439.56
2022-08-22T12:09:18.000Z,95427.44
2022-08-22T12:11:59.758Z,95421.91
2022-08-22T12:14:34.521Z,95419.50
2022-08-22T12:17:28.493Z,95428.66
2022-08-22T12:20:19.874Z,95418.91
2022-08-22T12:23:06.425Z,95419.13
2022-08-22T12:25:53.007Z,95409.66
2022-08-22T12:28:32.392Z,95406.81
2022-08-22T12:31:12.344Z,95414.91
2022-08-22T12:34:10.551Z,95409.13
2022-08-22T12:37:08.850Z,95415.53
2022-08-22T12:39:52.224Z,95414.28
2022-08-22T12:42:36.378Z,95408.84
2022-08-22T12:45:21.509Z,95402.38
2022-08-22T12:48:03.996Z,95400.63
2022-08-22T12:50:43.679Z,95398.91
2022-08-22T12:53:34.786Z,95388.25
2022-08-22T12:56:10.298Z,95388.47
2022-08-22T12:59:00.793Z,95383.19
2022-08-22T13:01:35.545Z,95392.09
2022-08-22T13:04:06.130Z,95379.78
2022-08-22T13:06:54.320Z,95382.38
2022-08-22T13:09:30.698Z,95384.69
2022-08-22T13:12:05.495Z,95383.03
2022-08-22T13:14:35.682Z,95381.88
2022-08-22T13:17:10.266Z,95385.69
2022-08-22T13:20:00.899Z,95388.53
2022-08-22T13:22:34.872Z,95385.25
2022-08-22T13:25:08.646Z,95386.63
2022-08-22T13:27:51.146Z,95384.38
2022-08-22T13:30:21.674Z,95381.47
2022-08-22T13:32:52.651Z,95382.28
2022-08-22T13:35:24.855Z,95390.16
2022-08-22T13:38:03.744Z,95393.31
2022-08-22T13:40:34.132Z,95384.88
2022-08-22T13:43:06.198Z,95389.38
2022-08-22T13:45:36.490Z,95382.72
2022-08-22T13:48:11.578Z,95392.84
2022-08-22T13:51:00.782Z,95376.69
2022-08-22T13:53:39.526Z,95380.50
2022-08-22T13:56:15.515Z,95376.25
2022-08-22T13:58:47.001Z,95370.84
2022-08-22T14:01:28.794Z,95371.94
2022-08-22T14:04:01.065Z,95374.06
2022-08-22T14:06:43.906Z,95367.97
2022-08-22T14:09:29.392Z,95372.34
2022-08-22T14:12:12.654Z,95370.56
2022-08-22T14:14:45.870Z,95366.75
2022-08-22T14:17:16.645Z,95370.06
2022-08-22T14:19:58.550Z,95370.94
2022-08-22T14:22:35.026Z,95358.66
2022-08-22T14:25:08.824Z,95361.78
2022-08-22T14:27:40.669Z,95353.75
2022-08-22T14:30:16.983Z,95358.97
2022-08-22T14:32:52.343Z,95356.63
2022-08-22T14:35:34.745Z,95352.13
2022-08-22T14:38:27.472Z,95361.31
2022-08-22T14:41:03.517Z,95355.91
2022-08-22T14:43:49.370Z,95355.78
2022-08-22T14:46:24.031Z,95358.59
2022-08-22T14:49:31.560Z,95348.44
2022-08-22T14:52:10.477Z,95355.38
2022-08-22T14:54:47.574Z,95350.16
2022-08-22T14:57:20.600Z,95360.38
2022-08-22T14:59:51.183Z,95359.41
2022-08-22T15:02:27.661Z,95359.34
2022-08-22T15:04:56.975Z,95357.31
2022-08-22T15:07:28.003Z,95354.25
2022-08-22T15:10:01.069Z,95357.06
2022-08-22T15:12:35.118Z,95357.06
2022-08-22T15:15:07.042Z,95364.06
2022-08-22T15:17:44.009Z,95354.53
2022-08-22T15:20:27.725Z,95356.38
2022-08-22T15:22:58.015Z,95357.88
2022-08-22T15:25:30.118Z,95356.09
2022-08-22T15:28:06.460Z,95358.63
2022-08-22T15:30:44.257Z,95355.97
2022-08-22T15:33:17.301Z,95361.69
2022-08-22T15:35:48.162Z,95355.72
2022-08-22T15:38:28.612Z,95355.16
2022-08-22T15:41:04.101Z,95348.13
2022-08-22T15:43:37.122Z,95342.78
2022-08-22T15:46:19.335Z,95349.31
2022-08-22T15:48:58.005Z,95346.13
2022-08-22T15:51:36.954Z,95352.06
2022-08-22T15:54:25.011Z,95344.53
2022-08-22T15:57:15.892Z,95353.97
2022-08-22T15:59:55.615Z,95345.78
2022-08-22T16:02:33.261Z,95348.94
2022-08-22T16:05:21.876Z,95347.28
2022-08-22T16:07:52.714Z,95342.44
2022-08-22T16:10:33.201Z,95334.09
2022-08-22T16:13:14.649Z,95342.72
2022-08-22T16:15:58.557Z,95331.56
2022-08-22T16:19:04.041Z,95336.22
2022-08-22T16:22:17.370Z,95333.94
2022-08-22T16:25:10.695Z,95342.97
2022-08-22T16:27:54.406Z,95341.72
2022-08-22T16:30:35.512Z,95349.31
2022-08-22T16:33:07.035Z,95344.69
2022-08-22T16:36:23.970Z,95341.31
2022-08-22T16:38:54.902Z,95342.06
2022-08-22T16:41:32.998Z,95339.19
2022-08-22T16:44:41.548Z,95343.94
2022-08-22T16:47:13.797Z,95342.75
2022-08-22T16:50:00.327Z,95341.28
2022-08-22T16:53:01.603Z,95340.88
2022-08-22T16:55:47.287Z,95338.28
2022-08-22T16:58:56.161Z,95343.63
2022-08-22T17:01:38.996Z,95346.84
2022-08-22T17:04:15.794Z,95344.78
2022-08-22T17:07:06.403Z,95346.50
2022-08-22T17:09:57.106Z,95339.53
2022-08-22T17:12:39.819Z,95350.97
2022-08-22T17:15:17.758Z,95352.19
2022-08-22T17:18:10.681Z,95356.06
2022-08-22T17:20:47.619Z,95360.16
2022-08-22T17:23:30.776Z,95368.09
2022-08-22T17:26:07.415Z,95360.59
2022-08-22T17:28:40.747Z,95366.91
2022-08-22T17:31:16.338Z,95374.56
2022-08-22T17:34:20.355Z,95372.53
2022-08-22T17:36:58.895Z,95368.66
2022-08-22T17:39:47.144Z,95378.72
2022-08-22T17:42:30.022Z,95376.34
2022-08-22T17:45:08.615Z,95369.13
2022-08-22T17:47:47.228Z,95375.38
2022-08-22T17:50:22.770Z,95377.31
2022-08-22T17:52:56.436Z,95378.41
2022-08-22T17:55:31.456Z,95378.41
2022-08-22T17:58:05.215Z,95378.97
2022-08-22T18:00:36.850Z,95386.25
2022-08-22T18:03:09.937Z,95383.28
2022-08-22T18:05:46.945Z,95383.56
2022-08-22T18:11:21.044Z,95387.88
2022-08-22T18:13:56.299Z,95401.81
2022-08-22T18:16:29.468Z,95391.84
2022-08-22T18:19:04.639Z,95394.25
2022-08-22T18:21:36.334Z,95398.50
2022-08-22T18:24:18.503Z,95396.59
2022-08-22T18:26:59.080Z,95398.44
2022-08-22T18:29:32.538Z,95402.97
2022-08-22T18:32:11.159Z,95403.72
2022-08-22T18:34:44.372Z,95407.13
2022-08-22T18:37:21.139Z,95418.84
2022-08-22T18:39:56.753Z,95416.34
2022-08-22T18:42:31.259Z,95417.91
2022-08-22T18:44:59.224Z,95420.00
2022-08-22T18:47:32.564Z,95428.25
2022-08-22T18:50:03.942Z,95424.97
2022-08-22T18:52:38.486Z,95429.41
2022-08-22T18:55:23.389Z,95437.94
2022-08-22T18:58:16.796Z,95433.47
2022-08-22T19:00:55.584Z,95439.25
2022-08-22T19:03:38.396Z,95444.56
2022-08-22T19:06:28.890Z,95447.66
2022-08-22T19:09:35.387Z,95445.34
2022-08-22T19:12:15.300Z,95452.44
2022-08-22T19:15:06.183Z,95456.88
2022-08-22T19:17:55.804Z,95463.22
2022-08-22T19:20:48.398Z,95472.69
2022-08-22T19:23:47.966Z,95474.59
2022-08-22T19:26:34.933Z,95476.47
2022-08-22T19:29:10.815Z,95475.19
2022-08-22T19:31:51.886Z,95473.38
2022-08-22T19:34:36.171Z,95474.94
2022-08-22T19:37:33.667Z,95480.59
2022-08-22T19:40:05.371Z,95486.94
2022-08-22T19:42:37.331Z,95480.41
2022-08-22T19:45:17.603Z,95487.78
2022-08-22T19:47:56.300Z,95478.53
2022-08-22T19:50:32.759Z,95484.84
2022-08-22T19:53:13.141Z,95480.47
2022-08-22T19:55:59.436Z,95483.06
2022-08-22T19:58:36.329Z,95480.28
2022-08-22T20:01:22.882Z,95478.78
2022-08-22T20:03:56.784Z,95488.34
2022-08-22T20:06:43.946Z,95478.94
2022-08-22T20:09:34.394Z,95483.13
2022-08-22T20:12:16.049Z,95484.88
2022-08-22T20:14:46.431Z,95478.38
2022-08-22T20:17:35.197Z,95486.66
2022-08-22T20:20:30.428Z,95487.56
2022-08-22T20:23:02.199Z,95489.56
2022-08-22T20:25:42.879Z,95496.13
2022-08-22T20:28:33.996Z,95496.03
2022-08-22T20:31:04.514Z,95503.09
2022-08-22T20:33:39.571Z,95497.44
2022-08-22T20:36:27.360Z,95495.13
2022-08-22T20:38:59.567Z,95493.94
2022-08-22T20:41:32.785Z,95495.09
2022-08-22T20:44:06.840Z,95490.25
2022-08-22T20:46:47.980Z,95495.94
2022-08-22T20:49:24.424Z,95484.50
2022-08-22T20:51:56.481Z,95493.38
2022-08-22T20:54:25.805Z,95477.56
2022-08-22T20:56:56.479Z,95493.56
2022-08-22T20:59:30.810Z,95491.13
2022-08-22T21:02:07.315Z,95493.69
2022-08-22T21:04:43.743Z,95496.56
2022-08-22T21:07:13.174Z,95493.56
2022-08-22T21:09:58.394Z,95489.38
2022-08-22T21:12:26.402Z,95479.63
2022-08-22T21:14:54.130Z,95480.31
2022-08-22T21:17:29.075Z,95478.94
2022-08-22T21:20:17.986Z,95478.00
2022-08-22T21:22:47.333Z,95480.31
2022-08-22T21:25:15.792Z,95479.25
2022-08-22T21:27:47.602Z,95477.66
2022-08-22T21:30:23.009Z,95482.97
2022-08-22T21:32:55.647Z,95478.09
2022-08-22T21:35:28.621Z,95467.88
2022-08-22T21:37:59.018Z,95476.53
2022-08-22T21:40:33.347Z,95467.16
2022-08-22T21:43:07.363Z,95468.06
2022-08-22T21:45:41.539Z,95470.44
2022-08-22T21:48:37.908Z,95475.84
2022-08-22T21:51:27.947Z,95476.16
2022-08-22T21:54:28.922Z,95474.41
2022-08-22T21:57:00.624Z,95473.09
2022-08-22T21:59:51.387Z,95475.19
2022-08-22T22:02:36.377Z,95471.47
2022-08-22T22:05:08.458Z,95469.84
2022-08-22T22:07:37.325Z,95473.31
2022-08-22T22:10:07.175Z,95471.47
2022-08-22T22:12:36.303Z,95465.53
2022-08-22T22:15:04.394Z,95466.16
2022-08-22T22:17:32.573Z,95470.66
2022-08-22T22:20:00.207Z,95466.16
2022-08-22T22:22:28.207Z,95470.44
2022-08-22T22:24:55.841Z,95466.97
2022-08-22T22:27:23.934Z,95465.75
2022-08-22T22:29:52.917Z,95468.53
2022-08-22T22:32:20.543Z,95469.19
2022-08-22T22:34:48.170Z,95477.09
2022-08-22T22:37:15.934Z,95477.97
2022-08-22T22:39:43.716Z,95476.00
2022-08-22T22:42:11.532Z,95474.25
2022-08-22T22:44:39.147Z,95477.59
2022-08-22T22:47:13.231Z,95476.63
2022-08-22T22:49:40.836Z,95476.72
2022-08-22T22:52:08.819Z,95472.63
2022-08-22T22:54:39.381Z,95468.84
2022-08-22T22:57:12.391Z,95461.84
2022-08-22T22:59:41.034Z,95469.53
2022-08-22T23:02:11.966Z,95468.13
2022-08-22T23:04:44.484Z,95473.25
2022-08-22T23:07:14.431Z,95472.44
2022-08-22T23:09:44.739Z,95473.44
2022-08-22T23:12:14.357Z,95470.34
2022-08-22T23:14:42.127Z,95467.28
2022-08-22T23:17:10.147Z,95455.84
2022-08-22T23:19:38.810Z,95462.56
2022-08-22T23:22:09.556Z,95458.69
2022-08-22T23:24:38.774Z,95466.47
2022-08-22T23:27:07.643Z,95461.53
2022-08-22T23:29:35.551Z,95455.41
2022-08-22T23:32:05.119Z,95458.06
2022-08-22T23:34:35.116Z,95453.31
2022-08-22T23:37:06.530Z,95454.13
2022-08-22T23:39:38.083Z,95456.56
2022-08-22T23:42:08.321Z,95462.69
2022-08-22T23:44:37.915Z,95463.97
2022-08-22T23:47:07.806Z,95461.78
2022-08-22T23:49:36.735Z,95456.13
2022-08-22T23:52:06.194Z,95457.78
2022-08-22T23:54:35.855Z,95461.72
2022-08-22T23:57:11.958Z,95465.03
2022-08-22T23:59:46.309Z,95457.06
